createdAt,value
2022-11-27T00:00:18.665Z,28.07
2022-11-27T00:02:46.962Z,28.13
2022-11-27T00:05:15.227Z,28.17
2022-11-27T00:07:43.521Z,27.67
2022-11-27T00:10:12.317Z,27.30
2022-11-27T00:12:40.435Z,28.83
2022-11-27T00:15:12.310Z,27.63
2022-11-27T00:17:44.159Z,26.97
2022-11-27T00:20:12.818Z,26.30
2022-11-27T00:22:40.936Z,27.87
2022-11-27T00:25:09.642Z,27.13
2022-11-27T00:27:37.768Z,28.50
2022-11-27T00:30:06.680Z,27.17
2022-11-27T00:32:34.756Z,28.80
2022-11-27T00:35:04.707Z,28.03
2022-11-27T00:37:32.873Z,24.40
2022-11-27T00:40:01.058Z,25.00
2022-11-27T00:42:29.173Z,25.07
2022-11-27T00:44:57.298Z,23.63
2022-11-27T00:47:25.369Z,24.00
2022-11-27T00:49:53.516Z,24.30
2022-11-27T00:52:22.976Z,23.97
2022-11-27T00:54:51.519Z,24.47
2022-11-27T00:57:19.694Z,24.50
2022-11-27T00:59:47.731Z,26.53
2022-11-27T01:02:15.874Z,24.90
2022-11-27T01:04:46.554Z,26.20
2022-11-27T01:07:14.601Z,22.83
2022-11-27T01:09:44.096Z,24.37
2022-11-27T01:12:12.126Z,24.83
2022-11-27T01:14:40.454Z,26.60
2022-11-27T01:17:08.690Z,25.67
2022-11-27T01:19:36.752Z,26.33
2022-11-27T01:22:04.824Z,25.30
2022-11-27T01:24:32.870Z,24.83
2022-11-27T01:27:02.292Z,25.97
2022-11-27T01:29:30.414Z,26.27
2022-11-27T01:31:58.500Z,26.73
2022-11-27T01:34:26.559Z,26.57
2022-11-27T01:36:54.913Z,27.40
2022-11-27T01:39:24.211Z,27.70
2022-11-27T01:41:52.295Z,26.83
2022-11-27T01:44:51.078Z,26.17
2022-11-27T01:47:29.151Z,27.13
2022-11-27T01:49:59.275Z,24.03
2022-11-27T01:52:28.593Z,26.97
2022-11-27T01:54:57.718Z,27.60
2022-11-27T01:57:28.346Z,26.70
2022-11-27T01:59:58.824Z,25.93
2022-11-27T02:02:27.222Z,27.30
2022-11-27T02:04:55.485Z,27.17
2022-11-27T02:07:23.679Z,27.77
2022-11-27T02:09:51.755Z,27.03
2022-11-27T02:12:25.428Z,29.33
2022-11-27T02:15:00.132Z,27.33
2022-11-27T02:17:31.476Z,28.57
2022-11-27T02:20:12.016Z,29.80
2022-11-27T02:22:47.079Z,29.43
2022-11-27T02:25:22.766Z,28.97
2022-11-27T02:28:15.374Z,30.67
2022-11-27T02:30:47.312Z,30.30
2022-11-27T02:33:15.582Z,30.03
2022-11-27T02:35:47.408Z,30.20
2022-11-27T02:38:16.608Z,29.43
2022-11-27T02:40:47.872Z,30.77
2022-11-27T02:43:17.071Z,29.73
2022-11-27T02:45:47.447Z,31.63
2022-11-27T02:48:16.589Z,32.37
2022-11-27T02:50:45.543Z,29.47
2022-11-27T02:53:14.614Z,30.37
2022-11-27T02:55:42.668Z,29.53
2022-11-27T02:58:13.542Z,30.43
2022-11-27T03:00:41.913Z,30.13
2022-11-27T03:03:11.796Z,29.60
2022-11-27T03:05:41.526Z,28.57
2022-11-27T03:08:11.355Z,30.00
2022-11-27T03:10:44.328Z,30.03
2022-11-27T03:13:12.450Z,29.73
2022-11-27T03:15:42.792Z,30.33
2022-11-27T03:18:15.323Z,32.03
2022-11-27T03:20:43.342Z,32.50
2022-11-27T03:23:11.376Z,34.43
2022-11-27T03:25:39.424Z,33.57
2022-11-27T03:28:08.979Z,36.30
2022-11-27T03:30:37.045Z,35.30
2022-11-27T03:33:05.192Z,37.17
2022-11-27T03:35:34.603Z,38.70
2022-11-27T03:38:02.865Z,37.90
2022-11-27T03:40:34.136Z,37.27
2022-11-27T03:43:05.307Z,37.30
2022-11-27T03:45:36.264Z,38.67
2022-11-27T03:48:11.941Z,37.83
2022-11-27T03:50:47.529Z,36.10
2022-11-27T03:53:20.187Z,34.03
2022-11-27T03:55:50.767Z,32.73
2022-11-27T03:58:22.150Z,32.43
2022-11-27T04:00:50.881Z,31.40
2022-11-27T04:03:24.091Z,33.33
2022-11-27T04:05:53.555Z,32.27
2022-11-27T04:08:21.660Z,31.23
2022-11-27T04:10:49.728Z,33.03
2022-11-27T04:13:17.874Z,29.93
2022-11-27T04:15:45.965Z,27.17
2022-11-27T04:18:14.143Z,26.33
2022-11-27T04:20:42.165Z,26.77
2022-11-27T04:23:11.587Z,29.47
2022-11-27T04:25:39.673Z,24.77
2022-11-27T04:28:07.742Z,26.93
2022-11-27T04:30:35.812Z,27.93
2022-11-27T04:33:03.853Z,24.30
2022-11-27T04:35:31.939Z,22.43
2022-11-27T04:38:00.010Z,24.80
2022-11-27T04:40:29.527Z,25.20
2022-11-27T04:42:57.626Z,24.57
2022-11-27T04:45:25.685Z,26.37
2022-11-27T04:47:53.812Z,26.70
2022-11-27T04:50:21.895Z,24.90
2022-11-27T04:52:49.950Z,26.17
2022-11-27T04:55:18.071Z,25.00
2022-11-27T04:57:47.569Z,28.77
2022-11-27T05:00:16.309Z,30.70
2022-11-27T05:02:44.501Z,29.47
2022-11-27T05:05:12.627Z,26.17
2022-11-27T05:07:40.697Z,25.47
2022-11-27T05:10:10.011Z,24.93
2022-11-27T05:12:38.139Z,27.27
2022-11-27T05:15:09.292Z,28.77
2022-11-27T05:17:37.580Z,32.17
2022-11-27T05:20:06.774Z,32.73
2022-11-27T05:22:34.820Z,31.67
2022-11-27T05:25:02.985Z,32.63
2022-11-27T05:27:31.112Z,34.30
2022-11-27T05:29:59.168Z,33.10
2022-11-27T05:32:28.671Z,33.40
2022-11-27T05:34:56.733Z,34.53
2022-11-27T05:37:24.851Z,36.33
2022-11-27T05:39:52.886Z,38.87
2022-11-27T05:42:20.993Z,40.53
2022-11-27T05:44:51.682Z,38.67
2022-11-27T05:47:22.122Z,35.47
2022-11-27T05:49:51.647Z,40.63
2022-11-27T05:52:19.784Z,40.87
2022-11-27T05:54:47.927Z,39.00
2022-11-27T05:57:16.024Z,39.47
2022-11-27T05:59:44.089Z,39.73
2022-11-27T06:02:16.669Z,41.03
2022-11-27T06:04:48.828Z,42.67
2022-11-27T06:07:18.410Z,40.73
2022-11-27T06:09:46.587Z,42.87
2022-11-27T06:12:14.686Z,44.10
2022-11-27T06:14:42.987Z,43.53
2022-11-27T06:17:11.291Z,43.53
2022-11-27T06:19:39.346Z,43.97
2022-11-27T06:22:07.501Z,45.40
2022-11-27T06:24:36.959Z,44.50
2022-11-27T06:27:05.164Z,46.57
2022-11-27T06:29:33.222Z,42.87
2022-11-27T06:32:01.464Z,43.23
2022-11-27T06:34:29.527Z,44.57
2022-11-27T06:36:57.703Z,45.10
2022-11-27T06:39:26.016Z,47.13
2022-11-27T06:41:55.491Z,45.13
2022-11-27T06:44:23.550Z,48.50
2022-11-27T06:46:51.577Z,46.13
2022-11-27T06:49:20.746Z,51.00
2022-11-27T06:51:50.001Z,57.73
2022-11-27T06:54:18.076Z,57.03
2022-11-27T06:56:46.170Z,57.93
2022-11-27T06:59:15.720Z,63.87
2022-11-27T07:01:43.868Z,66.70
2022-11-27T07:04:12.149Z,58.03
2022-11-27T07:06:40.340Z,58.50
2022-11-27T07:09:08.527Z,54.00
2022-11-27T07:11:36.586Z,51.50
2022-11-27T07:14:05.292Z,51.70
2022-11-27T07:16:35.752Z,65.33
2022-11-27T07:19:05.409Z,59.30
2022-11-27T07:21:33.518Z,51.07
2022-11-27T07:24:02.111Z,49.60
2022-11-27T07:26:30.953Z,54.40
2022-11-27T07:28:59.108Z,56.17
2022-11-27T07:31:28.922Z,55.70
2022-11-27T07:33:58.519Z,51.70
2022-11-27T07:36:27.923Z,53.77
2022-11-27T07:38:56.181Z,54.70
2022-11-27T07:41:26.056Z,50.73
2022-11-27T07:43:57.483Z,53.23
2022-11-27T07:46:26.091Z,52.07
2022-11-27T07:48:54.229Z,49.00
2022-11-27T07:51:23.735Z,43.23
2022-11-27T07:53:52.652Z,44.80
2022-11-27T07:56:20.898Z,46.93
2022-11-27T07:58:48.978Z,48.10
2022-11-27T08:01:18.033Z,41.90
2022-11-27T08:03:46.286Z,40.43
2022-11-27T08:06:18.762Z,39.87
2022-11-27T08:08:48.192Z,36.90
2022-11-27T08:11:20.425Z,32.30
2022-11-27T08:13:48.607Z,35.57
2022-11-27T08:16:16.751Z,36.07
2022-11-27T08:18:44.886Z,37.97
2022-11-27T08:21:12.934Z,33.13
2022-11-27T08:23:41.057Z,36.73
2022-11-27T08:26:11.022Z,38.30
2022-11-27T08:28:39.096Z,41.63
2022-11-27T08:31:08.159Z,35.07
2022-11-27T08:33:36.313Z,35.07
2022-11-27T08:36:04.491Z,31.53
2022-11-27T08:38:32.589Z,31.40
2022-11-27T08:41:01.237Z,36.03
2022-11-27T08:43:30.919Z,31.63
2022-11-27T08:45:59.174Z,33.93
2022-11-27T08:48:27.371Z,34.03
2022-11-27T08:50:55.503Z,33.53
2022-11-27T08:53:23.614Z,34.90
2022-11-27T08:55:52.005Z,29.27
2022-11-27T08:58:20.084Z,27.83
2022-11-27T09:00:49.553Z,27.47
2022-11-27T09:03:17.693Z,28.57
2022-11-27T09:05:45.791Z,26.57
2022-11-27T09:08:20.242Z,24.83
2022-11-27T09:10:48.344Z,25.23
2022-11-27T09:13:16.391Z,26.03
2022-11-27T09:15:44.463Z,26.43
2022-11-27T09:18:13.894Z,21.80
2022-11-27T09:20:41.974Z,21.00
2022-11-27T09:23:14.241Z,23.13
2022-11-27T09:25:42.610Z,22.70
2022-11-27T09:28:10.709Z,19.20
2022-11-27T09:30:40.509Z,21.23
2022-11-27T09:33:08.601Z,21.80
2022-11-27T09:35:39.890Z,21.83
2022-11-27T09:38:08.089Z,20.90
2022-11-27T09:40:36.237Z,19.37
2022-11-27T09:43:08.110Z,19.43
2022-11-27T09:45:37.143Z,17.63
2022-11-27T09:48:06.646Z,17.93
2022-11-27T09:50:36.791Z,15.77
2022-11-27T09:53:08.101Z,18.27
2022-11-27T09:55:39.115Z,17.03
2022-11-27T09:58:08.473Z,16.37
2022-11-27T10:00:36.528Z,15.20
2022-11-27T10:03:04.671Z,16.57
2022-11-27T10:05:35.140Z,17.27
2022-11-27T10:08:11.773Z,19.10
2022-11-27T10:10:44.868Z,14.90
2022-11-27T10:13:19.967Z,15.37
2022-11-27T10:15:50.975Z,13.03
2022-11-27T10:18:23.056Z,15.67
2022-11-27T10:20:52.041Z,16.10
2022-11-27T10:23:28.213Z,14.17
2022-11-27T10:25:57.569Z,15.13
2022-11-27T10:28:30.010Z,12.93
2022-11-27T10:31:01.545Z,12.57
2022-11-27T10:33:35.941Z,12.27
2022-11-27T10:36:04.220Z,12.13
2022-11-27T10:38:34.440Z,13.13
2022-11-27T10:41:07.622Z,12.47
2022-11-27T10:43:36.103Z,12.87
2022-11-27T10:46:05.996Z,12.60
2022-11-27T10:48:34.627Z,13.80
2022-11-27T10:51:02.956Z,14.80
2022-11-27T10:53:33.420Z,13.50
2022-11-27T10:56:22.619Z,13.47
2022-11-27T10:58:53.308Z,12.77
2022-11-27T11:01:22.016Z,12.97
2022-11-27T11:03:50.218Z,13.10
2022-11-27T11:06:22.814Z,15.00
2022-11-27T11:09:02.378Z,15.20
2022-11-27T11:11:30.442Z,16.40
2022-11-27T11:13:58.683Z,14.87
2022-11-27T11:16:34.838Z,12.93
2022-11-27T11:19:03.929Z,12.63
2022-11-27T11:21:34.387Z,11.63
2022-11-27T11:24:05.063Z,12.17
2022-11-27T11:26:34.459Z,12.70
2022-11-27T11:29:03.937Z,11.63
2022-11-27T11:31:33.163Z,12.43
2022-11-27T11:34:03.010Z,12.40
2022-11-27T11:36:31.137Z,10.93
2022-11-27T11:38:59.287Z,10.53
2022-11-27T11:41:37.135Z,10.40
2022-11-27T11:44:05.394Z,10.50
2022-11-27T11:46:36.816Z,10.83
2022-11-27T11:49:08.452Z,11.40
2022-11-27T11:52:10.491Z,9.37
2022-11-27T11:54:49.154Z,9.90
2022-11-27T11:57:32.046Z,9.97
2022-11-27T12:00:01.993Z,7.57
2022-11-27T12:02:40.689Z,7.87
2022-11-27T12:05:17.056Z,7.47
2022-11-27T12:07:52.845Z,7.53
2022-11-27T12:10:23.635Z,5.43
2022-11-27T12:12:58.445Z,6.67
2022-11-27T12:15:29.372Z,6.37
2022-11-27T12:18:01.051Z,6.30
2022-11-27T12:20:35.110Z,5.93
2022-11-27T12:23:33.558Z,5.37
2022-11-27T12:26:06.586Z,6.40
2022-11-27T12:28:59.739Z,6.40
2022-11-27T12:31:38.940Z,7.07
2022-11-27T12:34:08.445Z,6.00
2022-11-27T12:37:02.214Z,7.47
2022-11-27T12:39:32.462Z,7.73
2022-11-27T12:42:02.736Z,5.73
2022-11-27T12:44:37.572Z,4.60
2022-11-27T12:47:08.484Z,3.90
2022-11-27T12:49:39.850Z,4.47
2022-11-27T12:52:11.247Z,4.70
2022-11-27T12:54:41.451Z,4.47
2022-11-27T12:57:12.603Z,3.87
2022-11-27T12:59:43.691Z,4.10
2022-11-27T13:02:19.938Z,3.77
2022-11-27T13:04:49.180Z,4.03
2022-11-27T13:07:19.870Z,3.23
2022-11-27T13:09:53.635Z,3.40
2022-11-27T13:12:24.004Z,3.93
2022-11-27T13:14:56.432Z,6.97
2022-11-27T13:17:24.629Z,8.00
2022-11-27T13:19:52.704Z,7.80
2022-11-27T13:22:27.554Z,8.70
2022-11-27T13:24:55.671Z,7.50
2022-11-27T13:27:24.929Z,9.37
2022-11-27T13:29:55.479Z,11.00
2022-11-27T13:32:24.680Z,10.60
2022-11-27T13:34:52.819Z,11.40
2022-11-27T13:37:30.017Z,10.13
2022-11-27T13:40:04.054Z,11.00
2022-11-27T13:42:34.032Z,11.17
2022-11-27T13:45:04.254Z,10.87
2022-11-27T13:47:37.708Z,9.47
2022-11-27T13:50:07.618Z,9.80
2022-11-27T13:52:35.847Z,9.67
2022-11-27T13:55:05.492Z,8.97
2022-11-27T13:57:34.438Z,10.03
2022-11-27T14:00:05.517Z,10.70
2022-11-27T14:02:44.096Z,9.63
2022-11-27T14:05:12.430Z,9.90
2022-11-27T14:07:42.449Z,8.17
2022-11-27T14:10:13.003Z,8.30
2022-11-27T14:12:41.094Z,7.93
2022-11-27T14:15:12.100Z,8.27
2022-11-27T14:17:41.771Z,7.00
2022-11-27T14:20:25.542Z,7.83
2022-11-27T14:25:42.216Z,6.70
2022-11-27T14:28:15.774Z,8.03
2022-11-27T14:30:47.754Z,7.83
2022-11-27T14:33:19.505Z,9.00
2022-11-27T14:35:50.055Z,10.50
2022-11-27T14:38:18.142Z,13.20
2022-11-27T14:40:46.374Z,12.07
2022-11-27T14:43:16.901Z,12.30
2022-11-27T14:45:47.679Z,12.70
2022-11-27T14:48:23.347Z,13.27
2022-11-27T14:50:51.670Z,15.03
2022-11-27T14:53:20.487Z,13.30
2022-11-27T14:55:49.311Z,13.83
2022-11-27T14:58:19.446Z,13.63
2022-11-27T15:00:57.628Z,13.33
2022-11-27T15:03:26.553Z,11.53
2022-11-27T15:05:56.359Z,11.00
2022-11-27T15:08:24.608Z,12.10
2022-11-27T15:10:54.803Z,11.50
2022-11-27T15:13:25.084Z,12.10
2022-11-27T15:16:00.184Z,11.87
2022-11-27T15:18:28.380Z,12.40
2022-11-27T15:20:56.441Z,12.67
2022-11-27T15:23:25.912Z,14.00
2022-11-27T15:26:08.316Z,13.30
2022-11-27T15:28:40.799Z,13.47
2022-11-27T15:31:27.464Z,12.13
2022-11-27T15:34:03.604Z,11.53
2022-11-27T15:36:39.856Z,11.57
2022-11-27T15:39:22.074Z,11.53
2022-11-27T15:41:57.787Z,11.73
2022-11-27T15:44:26.345Z,10.90
2022-11-27T15:46:56.115Z,11.80
2022-11-27T15:49:24.257Z,13.37
2022-11-27T15:51:52.404Z,13.97
2022-11-27T15:54:20.465Z,13.40
2022-11-27T15:56:48.632Z,13.40
2022-11-27T15:59:16.772Z,13.40
2022-11-27T16:01:44.922Z,12.87
2022-11-27T16:04:14.504Z,14.77
2022-11-27T16:06:42.676Z,14.97
2022-11-27T16:09:10.761Z,14.90
2022-11-27T16:11:38.876Z,14.20
2022-11-27T16:14:07.561Z,15.27
2022-11-27T16:16:36.263Z,16.23
2022-11-27T16:19:06.400Z,15.83
2022-11-27T16:21:36.029Z,17.13
2022-11-27T16:24:05.722Z,17.17
2022-11-27T16:26:33.877Z,16.50
2022-11-27T16:29:02.100Z,17.43
2022-11-27T16:31:30.261Z,18.43
2022-11-27T16:33:58.336Z,17.63
2022-11-27T16:36:26.468Z,18.97
2022-11-27T16:38:56.013Z,18.70
2022-11-27T16:41:24.976Z,18.23
2022-11-27T16:43:53.976Z,19.70
2022-11-27T16:46:23.056Z,18.37
2022-11-27T16:48:51.510Z,20.70
2022-11-27T16:51:20.430Z,20.73
2022-11-27T16:53:49.682Z,21.83
2022-11-27T16:56:20.028Z,22.30
2022-11-27T16:58:48.306Z,21.63
2022-11-27T17:01:17.581Z,20.83
2022-11-27T17:03:45.934Z,21.40
2022-11-27T17:06:15.199Z,22.57
2022-11-27T17:08:43.433Z,22.87
2022-11-27T17:11:11.856Z,22.73
2022-11-27T17:13:41.433Z,24.13
2022-11-27T17:16:09.814Z,26.13
2022-11-27T17:18:38.155Z,25.80
2022-11-27T17:21:07.502Z,27.87
2022-11-27T17:23:35.786Z,29.30
2022-11-27T17:26:08.366Z,31.23
2022-11-27T17:28:36.579Z,30.60
2022-11-27T17:31:10.011Z,31.73
2022-11-27T17:33:38.303Z,32.20
2022-11-27T17:36:07.501Z,31.70
2022-11-27T17:38:35.650Z,33.60
2022-11-27T17:41:04.219Z,35.57
2022-11-27T17:43:32.471Z,36.13
2022-11-27T17:46:00.619Z,39.43
2022-11-27T17:48:30.532Z,41.70
2022-11-27T17:50:58.604Z,40.37
2022-11-27T17:53:26.822Z,35.78
2022-11-27T17:55:55.547Z,33.23
2022-11-27T17:58:23.605Z,30.80
2022-11-27T18:00:51.793Z,33.40
2022-11-27T18:03:19.992Z,32.23
2022-11-27T18:05:49.564Z,29.93
2022-11-27T18:08:17.653Z,28.67
2022-11-27T18:10:45.714Z,29.10
2022-11-27T18:13:13.811Z,30.23
2022-11-27T18:15:44.072Z,30.37
2022-11-27T18:18:12.235Z,29.43
2022-11-27T18:20:40.297Z,29.50
2022-11-27T18:23:09.763Z,29.17
2022-11-27T18:25:46.067Z,29.53
2022-11-27T18:28:16.819Z,29.50
2022-11-27T18:30:44.951Z,29.63
2022-11-27T18:33:13.058Z,29.60
2022-11-27T18:35:42.527Z,30.03
2022-11-27T18:38:12.001Z,33.17
2022-11-27T18:40:41.693Z,33.80
2022-11-27T18:43:10.973Z,35.60
2022-11-27T18:45:39.263Z,33.40
2022-11-27T18:48:07.754Z,33.47
2022-11-27T18:50:35.869Z,33.83
2022-11-27T18:53:04.063Z,31.53
2022-11-27T18:55:35.941Z,33.37
2022-11-27T18:58:04.058Z,32.27
2022-11-27T19:00:32.159Z,34.20
2022-11-27T19:03:00.372Z,36.20
2022-11-27T19:05:28.607Z,36.77
2022-11-27T19:07:56.798Z,35.20
2022-11-27T19:10:24.990Z,37.23
2022-11-27T19:12:54.461Z,35.53
2022-11-27T19:15:22.622Z,33.93
2022-11-27T19:17:50.827Z,35.77
2022-11-27T19:20:19.615Z,35.67
2022-11-27T19:22:47.721Z,34.53
2022-11-27T19:25:15.941Z,37.03
2022-11-27T19:27:44.053Z,36.53
2022-11-27T19:30:14.584Z,37.17
2022-11-27T19:32:42.709Z,38.77
2022-11-27T19:35:11.011Z,37.23
2022-11-27T19:37:39.090Z,37.20
2022-11-27T19:40:08.599Z,37.60
2022-11-27T19:42:36.668Z,38.07
2022-11-27T19:45:05.074Z,36.27
2022-11-27T19:47:34.623Z,38.27
2022-11-27T19:50:02.766Z,42.50
2022-11-27T19:52:31.074Z,43.57
2022-11-27T19:54:59.243Z,41.43
2022-11-27T19:57:28.376Z,40.43
2022-11-27T19:59:56.767Z,40.20
2022-11-27T20:02:25.191Z,41.27
2022-11-27T20:04:54.844Z,41.13
2022-11-27T20:07:22.997Z,40.37
2022-11-27T20:09:52.337Z,42.57
2022-11-27T20:12:20.597Z,43.10
2022-11-27T20:14:48.805Z,43.13
2022-11-27T20:17:16.946Z,43.80
2022-11-27T20:19:45.125Z,42.33
2022-11-27T20:22:14.595Z,41.13
2022-11-27T20:25:04.012Z,40.77
2022-11-27T20:27:30.876Z,38.53
2022-11-27T20:30:00.197Z,41.17
2022-11-27T20:32:28.433Z,42.07
2022-11-27T20:34:56.574Z,41.20
2022-11-27T20:37:26.285Z,44.80
2022-11-27T20:39:54.334Z,44.33
2022-11-27T20:42:24.557Z,45.97
2022-11-27T20:44:52.751Z,42.57
2022-11-27T20:47:20.896Z,42.93
2022-11-27T20:49:49.058Z,42.53
2022-11-27T20:52:17.290Z,44.77
2022-11-27T20:54:46.717Z,42.47
2022-11-27T20:57:15.052Z,45.37
2022-11-27T20:59:43.865Z,44.47
2022-11-27T21:02:12.487Z,45.03
2022-11-27T21:04:40.723Z,45.67
2022-11-27T21:07:08.893Z,44.10
2022-11-27T21:09:36.965Z,44.87
2022-11-27T21:12:07.007Z,43.77
2022-11-27T21:14:36.018Z,45.00
2022-11-27T21:17:05.214Z,41.23
2022-11-27T21:19:33.552Z,39.07
2022-11-27T21:22:01.748Z,39.97
2022-11-27T21:24:30.002Z,40.30
2022-11-27T21:26:58.239Z,40.63
2022-11-27T21:29:28.538Z,39.60
2022-11-27T21:31:57.332Z,40.13
2022-11-27T21:34:25.538Z,42.07
2022-11-27T21:36:53.753Z,42.27
2022-11-27T21:39:21.905Z,41.70
2022-11-27T21:41:50.599Z,40.20
2022-11-27T21:44:18.899Z,39.20
2022-11-27T21:46:48.539Z,38.43
2022-11-27T21:49:17.243Z,37.57
2022-11-27T21:51:45.375Z,35.57
2022-11-27T21:54:14.904Z,37.60
2022-11-27T21:56:43.009Z,36.80
2022-11-27T21:59:14.363Z,38.37
2022-11-27T22:01:42.616Z,36.73
2022-11-27T22:04:12.101Z,38.20
2022-11-27T22:06:41.357Z,38.93
2022-11-27T22:09:14.947Z,37.30
2022-11-27T22:11:43.713Z,38.57
2022-11-27T22:14:11.789Z,37.83
2022-11-27T22:16:44.898Z,39.13
2022-11-27T22:19:15.637Z,35.40
2022-11-27T22:21:43.992Z,37.37
2022-11-27T22:24:16.852Z,39.47
2022-11-27T22:26:46.800Z,39.10
2022-11-27T22:29:14.910Z,39.53
2022-11-27T22:31:42.935Z,37.63
2022-11-27T22:34:11.020Z,38.13
2022-11-27T22:36:40.439Z,40.07
2022-11-27T22:39:08.876Z,39.33
2022-11-27T22:41:37.615Z,41.17
2022-11-27T22:44:06.907Z,41.03
2022-11-27T22:46:35.683Z,40.40
2022-11-27T22:49:04.871Z,40.53
2022-11-27T22:51:33.737Z,41.03
2022-11-27T22:54:03.619Z,39.67
2022-11-27T22:56:33.734Z,42.13
2022-11-27T22:59:30.405Z,40.47
2022-11-27T23:01:50.190Z,37.53
2022-11-27T23:04:18.545Z,39.40
2022-11-27T23:06:48.468Z,41.07
2022-11-27T23:09:19.010Z,39.93
2022-11-27T23:11:47.175Z,42.60
2022-11-27T23:14:15.238Z,40.40
2022-11-27T23:16:43.438Z,38.63
2022-11-27T23:19:11.795Z,38.20
2022-11-27T23:21:40.089Z,42.33
2022-11-27T23:24:09.519Z,43.87
2022-11-27T23:26:38.947Z,42.20
2022-11-27T23:29:07.109Z,42.10
2022-11-27T23:31:36.308Z,41.53
2022-11-27T23:34:05.651Z,40.20
2022-11-27T23:36:34.071Z,39.40
2022-11-27T23:39:02.347Z,39.67
2022-11-27T23:41:30.402Z,39.37
2022-11-27T23:43:59.854Z,39.10
2022-11-27T23:46:28.976Z,39.60
2022-11-27T23:48:57.669Z,40.47
2022-11-27T23:51:27.356Z,39.17
2022-11-27T23:53:55.480Z,39.37
2022-11-27T23:56:24.240Z,37.07
2022-11-27T23:58:52.345Z,38.77
